createdAt,value
2022-10-13T00:00:23.410Z,12.5
2022-10-13T00:05:23.398Z,12.5
2022-10-13T00:10:23.380Z,12.6
2022-10-13T00:15:23.353Z,12.5
2022-10-13T00:20:23.336Z,12.6
2022-10-13T00:25:23.313Z,12.6
2022-10-13T00:30:23.297Z,12.7
2022-10-13T00:35:23.282Z,12.7
2022-10-13T00:40:23.249Z,12.8
2022-10-13T00:45:23.238Z,12.7
2022-10-13T00:50:23.213Z,12.7
2022-10-13T00:55:23.199Z,12.7
2022-10-13T01:00:23.174Z,12.6
2022-10-13T01:05:23.154Z,12.5
2022-10-13T01:10:23.132Z,12.3
2022-10-13T01:15:23.107Z,12.2
2022-10-13T01:20:23.090Z,12.1
2022-10-13T01:25:23.069Z,12
2022-10-13T01:30:23.051Z,12
2022-10-13T01:35:23.039Z,11.9
2022-10-13T01:40:23.009Z,11.9
2022-10-13T01:45:22.990Z,11.8
2022-10-13T01:50:22.979Z,11.8
2022-10-13T01:55:22.955Z,11.7
2022-10-13T02:00:22.930Z,11.7
2022-10-13T02:05:22.911Z,11.6
2022-10-13T02:10:22.890Z,11.5
2022-10-13T02:15:22.875Z,11.4
2022-10-13T02:20:22.859Z,11.2
2022-10-13T02:25:22.828Z,11.2
2022-10-13T02:30:22.816Z,11.1
2022-10-13T02:35:22.796Z,11.1
2022-10-13T02:40:22.773Z,11.1
2022-10-13T02:45:22.759Z,11.1
2022-10-13T02:50:22.727Z,11
2022-10-13T02:55:22.707Z,11
2022-10-13T03:00:22.689Z,11
2022-10-13T03:05:22.678Z,11
2022-10-13T03:10:22.649Z,11
2022-10-13T03:15:22.630Z,11.1
2022-10-13T03:20:22.611Z,11
2022-10-13T03:25:22.592Z,10.9
2022-10-13T03:30:22.574Z,10.8
2022-10-13T03:35:22.549Z,10.6
2022-10-13T03:40:22.531Z,10.6
2022-10-13T03:45:22.549Z,10.6
2022-10-13T03:50:22.543Z,10.6
2022-10-13T03:55:22.473Z,10.6
2022-10-13T04:00:22.450Z,10.6
2022-10-13T04:05:22.434Z,10.5
2022-10-13T04:10:22.411Z,10.5
2022-10-13T04:15:22.410Z,10.6
2022-10-13T04:20:22.374Z,10.6
2022-10-13T04:25:22.373Z,10.8
2022-10-13T04:30:22.371Z,11
2022-10-13T04:35:22.311Z,11.1
2022-10-13T04:40:22.292Z,11.2
2022-10-13T04:45:22.276Z,11.4
2022-10-13T04:50:22.257Z,11.5
2022-10-13T04:55:22.238Z,11.6
2022-10-13T05:00:22.218Z,11.7
2022-10-13T05:05:22.188Z,11.7
2022-10-13T05:10:22.173Z,11.7
2022-10-13T05:15:22.150Z,11.8
2022-10-13T05:20:22.142Z,11.8
2022-10-13T05:25:22.114Z,11.8
2022-10-13T05:30:22.098Z,11.8
2022-10-13T05:35:22.082Z,11.8
2022-10-13T05:40:22.065Z,11.8
2022-10-13T05:45:22.035Z,11.8
2022-10-13T05:50:22.013Z,11.9
2022-10-13T05:55:21.995Z,11.9
2022-10-13T06:00:22.013Z,12
2022-10-13T06:05:21.955Z,12
2022-10-13T06:10:21.938Z,12
2022-10-13T06:15:21.918Z,12.1
2022-10-13T06:20:21.898Z,12.1
2022-10-13T06:25:21.875Z,12.2
2022-10-13T06:30:21.866Z,12.2
2022-10-13T06:35:21.837Z,12.1
2022-10-13T06:40:21.851Z,12.2
2022-10-13T06:45:21.838Z,12.2
2022-10-13T06:50:21.787Z,12.3
2022-10-13T06:55:21.770Z,12.3
2022-10-13T07:00:21.750Z,12.3
2022-10-13T07:05:21.718Z,12.3
2022-10-13T07:10:21.720Z,12.4
2022-10-13T07:15:21.732Z,12.4
2022-10-13T07:20:21.674Z,12.4
2022-10-13T07:25:21.628Z,12.5
2022-10-13T07:35:21.603Z,12.7
2022-10-13T07:45:21.553Z,12.8
2022-10-13T07:50:21.595Z,12.9
2022-10-13T08:00:21.529Z,13
2022-10-13T08:05:21.495Z,13.1
2022-10-13T08:10:21.449Z,13.1
2022-10-13T08:15:21.430Z,13.2
2022-10-13T08:20:21.426Z,13.3
2022-10-13T08:25:21.387Z,13.4
2022-10-13T08:30:21.364Z,13.6
2022-10-13T08:35:21.355Z,13.8
2022-10-13T08:40:21.331Z,14.1
2022-10-13T08:45:21.324Z,14.3
2022-10-13T08:50:21.290Z,14.4
2022-10-13T08:55:21.288Z,14.5
2022-10-13T09:00:21.264Z,14.6
2022-10-13T09:10:25.685Z,14.8
2022-10-13T09:15:21.289Z,14.9
2022-10-13T09:20:21.186Z,14.9
2022-10-13T09:25:21.172Z,14.9
2022-10-13T09:30:21.119Z,14.8
2022-10-13T09:35:21.102Z,14.8
2022-10-13T09:40:21.074Z,14.9
2022-10-13T09:45:21.053Z,15
2022-10-13T09:50:21.037Z,15
2022-10-13T09:55:21.009Z,15.2
2022-10-13T10:00:20.992Z,15.2
2022-10-13T10:05:20.978Z,15.3
2022-10-13T10:10:20.959Z,15.3
2022-10-13T10:15:20.927Z,15.4
2022-10-13T10:20:20.914Z,15.6
2022-10-13T10:25:20.894Z,15.8
2022-10-13T10:30:20.866Z,15.8
2022-10-13T10:40:20.830Z,16.1
2022-10-13T10:45:20.810Z,16.4
2022-10-13T10:50:20.784Z,16.3
2022-10-13T10:55:20.760Z,16.4
2022-10-13T11:00:20.738Z,16.5
2022-10-13T11:05:20.725Z,16.8
2022-10-13T11:10:20.702Z,17
2022-10-13T11:15:20.673Z,17.3
2022-10-13T11:20:20.655Z,17.4
2022-10-13T11:25:20.633Z,17.5
2022-10-13T11:30:20.618Z,17.7
2022-10-13T11:35:20.608Z,17.8
2022-10-13T11:45:20.547Z,17.6
2022-10-13T11:50:20.531Z,17.6
2022-10-13T11:55:20.508Z,17.7
2022-10-13T12:00:20.489Z,17.7
2022-10-13T12:05:20.477Z,17.7
2022-10-13T12:10:20.446Z,17.6
2022-10-13T12:15:20.463Z,17.6
2022-10-13T12:20:20.401Z,17.7
2022-10-13T12:25:20.383Z,18
2022-10-13T12:30:20.365Z,17.9
2022-10-13T12:35:20.336Z,17.9
2022-10-13T12:40:20.319Z,17.9
2022-10-13T12:45:20.297Z,18
2022-10-13T12:50:20.277Z,17.9
2022-10-13T12:55:20.256Z,18
2022-10-13T13:00:20.279Z,18
2022-10-13T13:05:20.212Z,18
2022-10-13T13:10:20.196Z,18
2022-10-13T13:15:20.173Z,18
2022-10-13T13:20:20.150Z,18.1
2022-10-13T13:25:20.126Z,18.1
2022-10-13T13:30:20.105Z,18.2
2022-10-13T13:35:20.133Z,18.2
2022-10-13T13:40:20.061Z,18.2
2022-10-13T13:45:20.118Z,18.1
2022-10-13T13:50:20.015Z,18.1
2022-10-13T13:55:20.017Z,18
2022-10-13T14:00:19.979Z,18
2022-10-13T14:05:19.956Z,18
2022-10-13T14:10:19.941Z,17.9
2022-10-13T14:15:19.914Z,17.9
2022-10-13T14:20:19.898Z,17.9
2022-10-13T14:25:19.869Z,17.8
2022-10-13T14:30:19.887Z,17.8
2022-10-13T14:35:19.876Z,17.8
2022-10-13T14:40:19.816Z,17.8
2022-10-13T14:45:19.879Z,17.8
2022-10-13T14:50:19.760Z,17.7
2022-10-13T14:55:19.775Z,17.7
2022-10-13T15:00:19.721Z,17.6
2022-10-13T15:05:19.717Z,17.5
2022-10-13T15:10:19.695Z,17.4
2022-10-13T15:15:19.697Z,17.4
2022-10-13T15:20:19.639Z,17.3
2022-10-13T15:25:19.624Z,17.2
2022-10-13T15:30:19.599Z,17.2
2022-10-13T15:35:19.575Z,17.1
2022-10-13T15:40:19.557Z,17.1
2022-10-13T15:45:19.562Z,17
2022-10-13T15:50:19.560Z,17
2022-10-13T15:55:19.498Z,16.9
2022-10-13T16:00:19.474Z,16.8
2022-10-13T16:05:19.480Z,16.8
2022-10-13T16:10:19.433Z,16.7
2022-10-13T16:15:19.416Z,16.7
2022-10-13T16:20:19.384Z,16.6
2022-10-13T16:25:19.449Z,16.4
2022-10-13T16:30:19.354Z,16.3
2022-10-13T16:35:19.322Z,16.2
2022-10-13T16:40:19.308Z,16.1
2022-10-13T16:45:19.278Z,16.1
2022-10-13T16:50:19.260Z,16.1
2022-10-13T16:55:19.245Z,16
2022-10-13T17:00:19.268Z,16
2022-10-13T17:10:19.176Z,15.9
2022-10-13T17:15:19.168Z,15.9
2022-10-13T17:20:19.149Z,15.9
2022-10-13T17:25:19.120Z,15.8
2022-10-13T17:30:19.106Z,15.8
2022-10-13T17:35:19.125Z,15.8
2022-10-13T17:40:19.057Z,15.7
2022-10-13T17:45:19.037Z,15.6
2022-10-13T17:50:19.011Z,15.5
2022-10-13T17:55:19.002Z,15.4
2022-10-13T18:00:18.977Z,15.4
2022-10-13T18:05:18.952Z,15.4
2022-10-13T18:10:18.925Z,15.3
2022-10-13T18:15:18.920Z,15.3
2022-10-13T18:20:18.924Z,15.3
2022-10-13T18:25:18.874Z,15.2
2022-10-13T18:30:18.852Z,15.2
2022-10-13T18:35:18.857Z,15.2
2022-10-13T18:40:18.802Z,15.1
2022-10-13T18:45:18.787Z,15.1
2022-10-13T18:50:18.829Z,15
2022-10-13T18:55:18.744Z,14.9
2022-10-13T19:00:18.847Z,14.9
2022-10-13T19:10:18.691Z,14.8
2022-10-13T19:15:18.657Z,14.8
2022-10-13T19:20:18.710Z,14.7
2022-10-13T19:25:18.670Z,14.7
2022-10-13T19:30:18.597Z,14.6
2022-10-13T19:40:18.588Z,14.6
2022-10-13T19:45:18.537Z,14.6
2022-10-13T19:50:18.523Z,14.7
2022-10-13T20:00:18.476Z,14.5
2022-10-13T20:05:18.450Z,14.5
2022-10-13T20:10:18.453Z,14.5
2022-10-13T20:15:18.439Z,14.5
2022-10-13T20:20:18.397Z,14.4
2022-10-13T20:25:18.372Z,14.4
2022-10-13T20:30:18.391Z,14.3
2022-10-13T20:35:18.410Z,14.3
2022-10-13T20:40:18.309Z,14.3
2022-10-13T20:45:18.291Z,14.2
2022-10-13T20:50:18.273Z,14.1
2022-10-13T20:55:18.244Z,14.1
2022-10-13T21:00:18.231Z,14.1
2022-10-13T21:05:18.216Z,14.1
2022-10-13T21:10:18.190Z,14.1
2022-10-13T21:15:18.168Z,14.1
2022-10-13T21:20:18.144Z,14.1
2022-10-13T21:25:18.183Z,14
2022-10-13T21:35:18.081Z,13.9
2022-10-13T21:45:18.051Z,13.9
2022-10-13T21:50:18.019Z,13.9
2022-10-13T21:55:18.060Z,13.9
2022-10-13T22:00:18.080Z,13.9
2022-10-13T22:05:17.962Z,13.9
2022-10-13T22:10:17.941Z,13.9
2022-10-13T22:15:18.002Z,13.9
2022-10-13T22:20:17.904Z,13.9
2022-10-13T22:25:17.876Z,13.9
2022-10-13T22:30:17.853Z,14
2022-10-13T22:35:17.881Z,13.9
2022-10-13T22:40:17.872Z,13.9
2022-10-13T22:45:17.793Z,14
2022-10-13T22:50:17.786Z,14
2022-10-13T22:55:17.748Z,14
2022-10-13T23:00:17.746Z,14
2022-10-13T23:05:17.757Z,14
2022-10-13T23:15:17.725Z,14
2022-10-13T23:20:17.651Z,14
2022-10-13T23:25:17.652Z,14
2022-10-13T23:30:17.608Z,14
2022-10-13T23:35:17.585Z,14
2022-10-13T23:40:17.571Z,14
2022-10-13T23:45:17.548Z,14
2022-10-13T23:50:17.529Z,14
2022-10-13T23:55:17.506Z,14
